createdAt,value
2023-05-17T00:01:33.052Z,101433.31
2023-05-17T00:04:04.070Z,101432.28
2023-05-17T00:06:32.154Z,101429.28
2023-05-17T00:09:10.108Z,101425.03
2023-05-17T00:11:44.086Z,101431.41
2023-05-17T00:14:11.903Z,101430.19
2023-05-17T00:16:43.760Z,101422.38
2023-05-17T00:19:11.614Z,101428.56
2023-05-17T00:21:39.376Z,101424.09
2023-05-17T00:24:07.568Z,101434.44
2023-05-17T00:26:35.320Z,101429.53
2023-05-17T00:29:03.681Z,101427.66
2023-05-17T00:31:31.171Z,101428.31
2023-05-17T00:34:06.275Z,101426.28
2023-05-17T00:36:33.839Z,101435.13
2023-05-17T00:39:01.439Z,101428.19
2023-05-17T00:41:28.982Z,101429.88
2023-05-17T00:43:57.848Z,101430.25
2023-05-17T00:46:25.419Z,101424.50
2023-05-17T00:49:04.943Z,101427.59
2023-05-17T00:51:32.996Z,101434.00
2023-05-17T00:54:00.785Z,101445.31
2023-05-17T00:56:28.579Z,101432.84
2023-05-17T00:58:56.417Z,101442.75
2023-05-17T01:01:24.065Z,101439.31
2023-05-17T01:04:14.824Z,101426.00
2023-05-17T01:06:42.577Z,101426.94
2023-05-17T01:09:10.986Z,101430.41
2023-05-17T01:11:48.001Z,101431.44
2023-05-17T01:14:29.252Z,101426.41
2023-05-17T01:17:02.249Z,101425.16
2023-05-17T01:20:00.797Z,101439.31
2023-05-17T01:22:37.612Z,101431.13
2023-05-17T01:25:30.024Z,101434.78
2023-05-17T01:28:02.526Z,101440.00
2023-05-17T01:30:33.609Z,101436.63
2023-05-17T01:33:13.878Z,101437.03
2023-05-17T01:35:41.722Z,101441.69
2023-05-17T01:38:09.200Z,101442.91
2023-05-17T01:40:45.381Z,101453.81
2023-05-17T01:43:22.784Z,101447.28
2023-05-17T01:45:58.500Z,101457.50
2023-05-17T01:48:32.535Z,101466.84
2023-05-17T01:51:01.167Z,101468.28
2023-05-17T01:53:32.189Z,101466.78
2023-05-17T01:56:04.684Z,101468.97
2023-05-17T01:58:37.985Z,101473.00
2023-05-17T02:01:06.215Z,101475.31
2023-05-17T02:03:33.950Z,101469.97
2023-05-17T02:06:01.657Z,101471.69
2023-05-17T02:08:29.210Z,101466.88
2023-05-17T02:10:56.751Z,101459.94
2023-05-17T02:13:24.606Z,101459.72
2023-05-17T02:15:53.541Z,101463.50
2023-05-17T02:18:22.165Z,101455.69
2023-05-17T02:20:49.910Z,101465.28
2023-05-17T02:23:17.446Z,101456.38
2023-05-17T02:25:45.101Z,101455.75
2023-05-17T02:28:12.531Z,101461.66
2023-05-17T02:30:41.669Z,101453.22
2023-05-17T02:33:10.788Z,101447.59
2023-05-17T02:35:38.403Z,101447.94
2023-05-17T02:38:06.020Z,101444.84
2023-05-17T02:40:33.874Z,101439.84
2023-05-17T02:43:01.652Z,101441.56
2023-05-17T02:45:38.411Z,101447.63
2023-05-17T02:48:06.293Z,101447.97
2023-05-17T02:50:35.451Z,101444.00
2023-05-17T02:53:03.055Z,101450.09
2023-05-17T02:55:30.879Z,101441.00
2023-05-17T02:57:58.385Z,101446.59
2023-05-17T03:00:26.208Z,101452.81
2023-05-17T03:02:53.862Z,101450.84
2023-05-17T03:05:21.594Z,101468.19
2023-05-17T03:07:50.823Z,101466.56
2023-05-17T03:10:18.520Z,101473.81
2023-05-17T03:12:46.386Z,101470.69
2023-05-17T03:15:20.996Z,101466.88
2023-05-17T03:17:48.760Z,101475.63
2023-05-17T03:20:16.853Z,101483.22
2023-05-17T03:22:47.529Z,101481.47
2023-05-17T03:25:16.792Z,101471.72
2023-05-17T03:27:46.946Z,101479.28
2023-05-17T03:30:15.024Z,101474.69
2023-05-17T03:32:43.258Z,101472.84
2023-05-17T03:35:11.320Z,101483.31
2023-05-17T03:37:39.255Z,101486.69
2023-05-17T03:40:07.890Z,101488.25
2023-05-17T03:42:37.050Z,101490.75
2023-05-17T03:45:06.340Z,101485.72
2023-05-17T03:47:34.109Z,101490.75
2023-05-17T03:50:02.054Z,101498.06
2023-05-17T03:52:29.651Z,101500.81
2023-05-17T03:54:57.541Z,101508.13
2023-05-17T03:57:25.204Z,101500.72
2023-05-17T04:00:01.720Z,101506.25
2023-05-17T04:02:29.265Z,101505.13
2023-05-17T04:04:56.967Z,101516.38
2023-05-17T04:07:24.775Z,101516.97
2023-05-17T04:09:52.319Z,101501.03
2023-05-17T04:12:19.954Z,101508.25
2023-05-17T04:14:47.538Z,101512.19
2023-05-17T04:17:22.893Z,101535.16
2023-05-17T04:19:50.838Z,101525.50
2023-05-17T04:22:18.363Z,101510.84
2023-05-17T04:25:04.074Z,101511.34
2023-05-17T04:27:32.025Z,101505.47
2023-05-17T04:30:09.723Z,101516.03
2023-05-17T04:32:38.926Z,101520.41
2023-05-17T04:35:10.478Z,101535.81
2023-05-17T04:37:39.800Z,101529.88
2023-05-17T04:40:16.589Z,101527.88
2023-05-17T04:42:46.095Z,101546.56
2023-05-17T04:45:15.492Z,101538.34
2023-05-17T04:48:02.635Z,101541.78
2023-05-17T04:50:30.603Z,101549.19
2023-05-17T04:53:07.220Z,101561.00
2023-05-17T04:55:40.767Z,101566.19
2023-05-17T04:58:09.435Z,101576.16
2023-05-17T05:00:37.323Z,101588.53
2023-05-17T05:03:07.633Z,101584.31
2023-05-17T05:05:35.776Z,101585.53
2023-05-17T05:08:03.673Z,101592.97
2023-05-17T05:13:28.949Z,101593.97
2023-05-17T05:15:56.661Z,101592.19
2023-05-17T05:18:25.650Z,101606.16
2023-05-17T05:21:07.678Z,101605.16
2023-05-17T05:23:37.366Z,101628.25
2023-05-17T05:26:05.839Z,101621.50
2023-05-17T05:28:33.383Z,101627.38
2023-05-17T05:31:01.510Z,101616.31
2023-05-17T05:36:13.379Z,101619.91
2023-05-17T05:38:41.021Z,101630.50
2023-05-17T05:41:08.474Z,101629.53
2023-05-17T05:43:37.404Z,101636.09
2023-05-17T05:46:05.533Z,101653.09
2023-05-17T05:48:34.382Z,101649.47
2023-05-17T05:51:02.480Z,101661.09
2023-05-17T05:53:30.228Z,101659.38
2023-05-17T05:55:57.859Z,101653.59
2023-05-17T05:58:25.915Z,101672.38
2023-05-17T06:00:53.598Z,101663.31
2023-05-17T06:03:21.379Z,101659.00
2023-05-17T06:05:50.273Z,101666.03
2023-05-17T06:08:34.860Z,101660.72
2023-05-17T06:11:02.875Z,101678.13
2023-05-17T06:13:53.779Z,101673.84
2023-05-17T06:16:19.378Z,101689.97
2023-05-17T06:18:50.908Z,101697.69
2023-05-17T06:21:20.239Z,101704.19
2023-05-17T06:23:48.122Z,101704.50
2023-05-17T06:26:15.729Z,101701.63
2023-05-17T06:28:48.065Z,101700.69
2023-05-17T06:31:27.453Z,101698.53
2023-05-17T06:33:56.972Z,101703.47
2023-05-17T06:36:26.088Z,101700.84
2023-05-17T06:38:59.206Z,101703.34
2023-05-17T06:41:26.870Z,101715.63
2023-05-17T06:43:54.314Z,101709.66
2023-05-17T06:46:22.225Z,101706.72
2023-05-17T06:48:51.219Z,101699.41
2023-05-17T06:51:22.364Z,101693.16
2023-05-17T06:53:51.465Z,101706.56
2023-05-17T06:56:19.061Z,101707.25
2023-05-17T06:58:46.731Z,101697.84
2023-05-17T07:01:14.530Z,101715.81
2023-05-17T07:03:42.037Z,101714.06
2023-05-17T07:06:09.820Z,101700.59
2023-05-17T07:11:20.426Z,101712.69
2023-05-17T07:13:49.993Z,101710.47
2023-05-17T07:16:18.943Z,101705.50
2023-05-17T07:18:46.606Z,101713.78
2023-05-17T07:21:38.088Z,101705.97
2023-05-17T07:24:06.778Z,101694.50
2023-05-17T07:26:38.341Z,101721.09
2023-05-17T07:29:06.107Z,101723.47
2023-05-17T07:31:33.613Z,101719.91
2023-05-17T07:34:04.368Z,101717.25
2023-05-17T07:36:32.244Z,101720.31
2023-05-17T07:39:00.725Z,101728.53
2023-05-17T07:41:28.518Z,101737.03
2023-05-17T07:43:57.452Z,101739.16
2023-05-17T07:46:25.077Z,101738.63
2023-05-17T07:49:00.431Z,101740.75
2023-05-17T07:51:28.087Z,101749.94
2023-05-17T07:54:24.438Z,101757.09
2023-05-17T07:56:53.208Z,101759.69
2023-05-17T07:59:22.245Z,101753.38
2023-05-17T08:01:50.115Z,101748.50
2023-05-17T08:04:19.389Z,101757.31
2023-05-17T08:06:48.328Z,101770.72
2023-05-17T08:09:16.888Z,101765.34
2023-05-17T08:11:48.482Z,101783.16
2023-05-17T08:14:16.799Z,101780.63
2023-05-17T08:16:47.225Z,101783.22
2023-05-17T08:19:16.328Z,101775.13
2023-05-17T08:21:46.243Z,101768.19
2023-05-17T08:24:15.643Z,101768.78
2023-05-17T08:26:43.544Z,101772.34
2023-05-17T08:29:11.388Z,101779.06
2023-05-17T08:31:39.261Z,101777.84
2023-05-17T08:34:21.605Z,101780.53
2023-05-17T08:36:49.307Z,101789.47
2023-05-17T08:39:17.642Z,101784.94
2023-05-17T08:41:47.575Z,101794.56
2023-05-17T08:44:16.651Z,101795.38
2023-05-17T08:46:44.986Z,101800.44
2023-05-17T08:49:17.584Z,101797.97
2023-05-17T08:51:47.547Z,101795.41
2023-05-17T08:54:15.264Z,101796.59
2023-05-17T08:56:44.207Z,101786.88
2023-05-17T08:59:13.580Z,101785.09
2023-05-17T09:01:44.185Z,101777.75
2023-05-17T09:04:11.868Z,101789.56
2023-05-17T09:06:41.414Z,101790.66
2023-05-17T09:09:09.172Z,101800.75
2023-05-17T09:11:36.630Z,101799.19
2023-05-17T09:14:06.161Z,101792.41
2023-05-17T09:16:35.076Z,101789.06
2023-05-17T09:19:04.680Z,101777.44
2023-05-17T09:21:33.030Z,101777.50
2023-05-17T09:24:07.041Z,101775.13
2023-05-17T09:26:42.612Z,101781.94
2023-05-17T09:29:11.625Z,101782.72
2023-05-17T09:31:39.696Z,101780.63
2023-05-17T09:34:08.730Z,101774.53
2023-05-17T09:36:37.458Z,101780.94
2023-05-17T09:39:11.937Z,101772.16
2023-05-17T09:41:43.196Z,101773.72
2023-05-17T09:44:12.028Z,101772.03
2023-05-17T09:46:43.215Z,101784.84
2023-05-17T09:49:10.807Z,101784.75
2023-05-17T09:51:41.605Z,101789.88
2023-05-17T09:54:11.121Z,101785.28
2023-05-17T09:56:39.329Z,101803.53
2023-05-17T09:59:12.991Z,101790.97
2023-05-17T10:01:45.316Z,101788.34
2023-05-17T10:04:20.593Z,101789.72
2023-05-17T10:06:51.961Z,101786.06
2023-05-17T10:09:23.680Z,101792.38
2023-05-17T10:11:53.902Z,101785.59
2023-05-17T10:14:25.126Z,101792.94
2023-05-17T10:16:53.462Z,101789.78
2023-05-17T10:19:21.968Z,101779.84
2023-05-17T10:21:51.049Z,101788.94
2023-05-17T10:24:20.533Z,101793.53
2023-05-17T10:26:51.992Z,101792.22
2023-05-17T10:29:20.958Z,101785.06
2023-05-17T10:31:56.381Z,101796.13
2023-05-17T10:34:24.861Z,101788.06
2023-05-17T10:36:53.658Z,101792.69
2023-05-17T10:39:22.980Z,101788.84
2023-05-17T10:42:00.540Z,101787.78
2023-05-17T10:44:40.924Z,101799.72
2023-05-17T10:47:09.648Z,101814.44
2023-05-17T10:49:40.204Z,101814.19
2023-05-17T10:52:21.006Z,101801.97
2023-05-17T10:54:49.936Z,101802.53
2023-05-17T10:57:23.841Z,101802.88
2023-05-17T11:00:12.350Z,101799.94
2023-05-17T11:03:12.531Z,101805.84
2023-05-17T11:05:43.759Z,101800.31
2023-05-17T11:08:17.145Z,101813.53
2023-05-17T11:11:11.031Z,101806.63
2023-05-17T11:13:47.772Z,101791.53
2023-05-17T11:16:18.117Z,101795.22
2023-05-17T11:18:50.321Z,101814.66
2023-05-17T11:21:18.226Z,101816.88
2023-05-17T11:23:46.932Z,101813.84
2023-05-17T11:26:23.204Z,101804.78
2023-05-17T11:29:04.772Z,101794.66
2023-05-17T11:31:33.507Z,101800.00
2023-05-17T11:34:03.790Z,101805.09
2023-05-17T11:36:40.832Z,101802.38
2023-05-17T11:39:12.953Z,101797.50
2023-05-17T11:41:48.520Z,101804.47
2023-05-17T11:44:19.327Z,101797.78
2023-05-17T11:46:47.706Z,101798.34
2023-05-17T11:49:26.854Z,101806.28
2023-05-17T11:52:02.356Z,101808.09
2023-05-17T11:54:31.939Z,101802.94
2023-05-17T11:57:00.845Z,101790.47
2023-05-17T11:59:29.822Z,101800.56
2023-05-17T12:01:57.511Z,101787.44
2023-05-17T12:04:27.027Z,101800.84
2023-05-17T12:06:56.361Z,101805.09
2023-05-17T12:09:24.393Z,101799.16
2023-05-17T12:11:52.079Z,101814.66
2023-05-17T12:14:31.302Z,101814.88
2023-05-17T12:17:02.487Z,101818.75
2023-05-17T12:19:32.515Z,101809.06
2023-05-17T12:22:08.283Z,101809.56
2023-05-17T12:24:39.833Z,101809.53
2023-05-17T12:27:07.965Z,101813.13
2023-05-17T12:29:37.344Z,101810.09
2023-05-17T12:32:07.505Z,101801.09
2023-05-17T12:34:35.428Z,101797.63
2023-05-17T12:37:04.229Z,101803.19
2023-05-17T12:39:32.601Z,101798.25
2023-05-17T12:42:01.700Z,101801.56
2023-05-17T12:44:29.599Z,101795.06
2023-05-17T12:46:58.620Z,101797.56
2023-05-17T12:49:26.219Z,101807.06
2023-05-17T12:51:53.677Z,101807.66
2023-05-17T12:54:28.817Z,101810.81
2023-05-17T12:56:59.829Z,101796.41
2023-05-17T12:59:29.070Z,101799.88
2023-05-17T13:02:00.602Z,101806.97
2023-05-17T13:04:32.999Z,101807.22
2023-05-17T13:07:02.316Z,101808.03
2023-05-17T13:09:43.648Z,101802.03
2023-05-17T13:12:18.553Z,101805.25
2023-05-17T13:14:47.847Z,101804.84
2023-05-17T13:17:21.503Z,101805.28
2023-05-17T13:19:49.958Z,101796.69
2023-05-17T13:22:17.559Z,101794.47
2023-05-17T13:24:45.892Z,101801.53
2023-05-17T13:27:13.939Z,101801.78
2023-05-17T13:29:45.962Z,101806.78
2023-05-17T13:32:14.654Z,101806.25
2023-05-17T13:34:44.136Z,101796.25
2023-05-17T13:37:12.670Z,101794.09
2023-05-17T13:39:40.960Z,101801.44
2023-05-17T13:42:08.582Z,101807.91
2023-05-17T13:44:36.250Z,101806.91
2023-05-17T13:47:03.952Z,101808.50
2023-05-17T13:49:31.635Z,101817.84
2023-05-17T13:52:00.816Z,101815.88
2023-05-17T13:54:28.460Z,101817.28
2023-05-17T13:56:57.390Z,101816.34
2023-05-17T13:59:24.898Z,101808.88
2023-05-17T14:01:53.693Z,101812.88
2023-05-17T14:04:22.671Z,101807.34
2023-05-17T14:06:54.088Z,101814.44
2023-05-17T14:09:23.973Z,101809.22
2023-05-17T14:11:51.658Z,101818.91
2023-05-17T14:14:19.246Z,101816.94
2023-05-17T14:16:46.702Z,101813.13
2023-05-17T14:19:14.307Z,101820.06
2023-05-17T14:21:42.032Z,101817.91
2023-05-17T14:24:09.784Z,101817.25
2023-05-17T14:26:39.071Z,101817.03
2023-05-17T14:29:06.766Z,101817.91
2023-05-17T14:31:34.464Z,101819.03
2023-05-17T14:34:03.811Z,101824.84
2023-05-17T14:36:31.840Z,101832.94
2023-05-17T14:38:59.517Z,101824.09
2023-05-17T14:41:27.166Z,101830.63
2023-05-17T14:43:56.124Z,101827.66
2023-05-17T14:46:24.313Z,101826.94
2023-05-17T14:48:56.345Z,101825.19
2023-05-17T14:51:24.988Z,101824.47
2023-05-17T14:53:53.014Z,101838.13
2023-05-17T14:56:20.491Z,101842.47
2023-05-17T14:58:48.082Z,101846.13
2023-05-17T15:01:17.858Z,101845.69
2023-05-17T15:03:48.133Z,101856.00
2023-05-17T15:06:15.743Z,101854.56
2023-05-17T15:08:46.527Z,101851.28
2023-05-17T15:11:20.081Z,101848.66
2023-05-17T15:13:51.828Z,101838.66
2023-05-17T15:16:21.046Z,101842.06
2023-05-17T15:18:48.906Z,101830.00
2023-05-17T15:21:21.628Z,101841.91
2023-05-17T15:23:50.735Z,101848.91
2023-05-17T15:26:18.387Z,101849.66
2023-05-17T15:28:46.018Z,101859.66
2023-05-17T15:31:18.832Z,101866.69
2023-05-17T15:33:47.841Z,101867.75
2023-05-17T15:36:18.528Z,101862.00
2023-05-17T15:38:46.550Z,101856.94
2023-05-17T15:41:19.896Z,101848.28
2023-05-17T15:43:47.515Z,101867.22
2023-05-17T15:46:15.051Z,101872.06
2023-05-17T15:48:58.989Z,101866.03
2023-05-17T15:51:26.641Z,101873.59
2023-05-17T15:53:54.539Z,101871.19
2023-05-17T15:56:23.417Z,101869.22
2023-05-17T15:59:25.094Z,101871.03
2023-05-17T16:01:52.596Z,101869.25
2023-05-17T16:04:22.174Z,101868.34
2023-05-17T16:06:50.524Z,101865.69
2023-05-17T16:09:21.588Z,101871.97
2023-05-17T16:11:49.818Z,101870.31
2023-05-17T16:14:19.164Z,101866.09
2023-05-17T16:19:34.566Z,101867.94
2023-05-17T16:22:02.618Z,101861.34
2023-05-17T16:24:30.988Z,101864.81
2023-05-17T16:26:59.100Z,101870.91
2023-05-17T16:29:27.462Z,101869.09
2023-05-17T16:31:55.126Z,101872.63
2023-05-17T16:34:24.682Z,101882.16
2023-05-17T16:36:53.659Z,101881.28
2023-05-17T16:39:35.756Z,101883.88
2023-05-17T16:42:03.697Z,101893.47
2023-05-17T16:44:34.373Z,101899.66
2023-05-17T16:47:14.642Z,101904.84
2023-05-17T16:49:43.561Z,101904.94
2023-05-17T16:52:12.587Z,101902.66
2023-05-17T16:54:41.223Z,101907.66
2023-05-17T16:57:09.133Z,101905.13
2023-05-17T16:59:45.273Z,101908.22
2023-05-17T17:02:12.935Z,101913.09
2023-05-17T17:04:40.554Z,101918.13
2023-05-17T17:07:08.002Z,101912.28
2023-05-17T17:09:36.766Z,101919.34
2023-05-17T17:12:31.463Z,101920.47
2023-05-17T17:14:59.436Z,101926.81
2023-05-17T17:17:27.692Z,101919.16
2023-05-17T17:20:13.258Z,101916.03
2023-05-17T17:22:41.386Z,101917.53
2023-05-17T17:25:11.944Z,101916.53
2023-05-17T17:27:39.501Z,101926.75
2023-05-17T17:30:08.378Z,101914.72
2023-05-17T17:32:36.202Z,101917.25
2023-05-17T17:35:03.808Z,101924.31
2023-05-17T17:37:31.374Z,101926.44
2023-05-17T17:40:06.632Z,101927.19
2023-05-17T17:42:35.564Z,101922.31
2023-05-17T17:45:10.762Z,101920.28
2023-05-17T17:47:38.431Z,101933.03
2023-05-17T17:50:07.098Z,101932.78
2023-05-17T17:52:51.251Z,101935.69
2023-05-17T17:55:18.979Z,101943.91
2023-05-17T17:57:47.967Z,101946.91
2023-05-17T18:00:16.582Z,101951.31
2023-05-17T18:02:57.591Z,101945.06
2023-05-17T18:05:28.413Z,101941.81
2023-05-17T18:07:55.976Z,101940.13
2023-05-17T18:10:24.149Z,101951.53
2023-05-17T18:12:53.451Z,101955.88
2023-05-17T18:15:30.512Z,101948.09
2023-05-17T18:18:00.707Z,101956.59
2023-05-17T18:20:58.630Z,101954.22
2023-05-17T18:23:29.275Z,101954.94
2023-05-17T18:28:43.859Z,101969.19
2023-05-17T18:31:42.032Z,101974.94
2023-05-17T18:34:07.986Z,101982.03
2023-05-17T18:36:35.878Z,101987.44
2023-05-17T18:39:03.535Z,101980.97
2023-05-17T18:41:32.873Z,101987.84
2023-05-17T18:44:07.924Z,101994.44
2023-05-17T18:46:37.572Z,101995.75
2023-05-17T18:49:21.856Z,101998.50
2023-05-17T18:51:49.772Z,102003.94
2023-05-17T18:54:17.936Z,101999.97
2023-05-17T18:56:51.806Z,102005.41
2023-05-17T18:59:49.928Z,102005.13
2023-05-17T19:05:39.968Z,102016.66
2023-05-17T19:08:30.998Z,102028.78
2023-05-17T19:11:01.172Z,102032.28
2023-05-17T19:13:36.536Z,102036.22
2023-05-17T19:16:06.172Z,102044.28
2023-05-17T19:18:40.034Z,102047.47
2023-05-17T19:21:07.855Z,102045.09
2023-05-17T19:23:36.186Z,102050.38
2023-05-17T19:26:03.683Z,102053.97
2023-05-17T19:28:31.668Z,102053.88
2023-05-17T19:30:59.429Z,102062.78
2023-05-17T19:33:28.394Z,102062.16
2023-05-17T19:35:56.021Z,102073.53
2023-05-17T19:38:23.706Z,102076.06
2023-05-17T19:40:51.361Z,102076.56
2023-05-17T19:43:18.856Z,102076.22
2023-05-17T19:45:46.456Z,102078.47
2023-05-17T19:48:13.993Z,102090.06
2023-05-17T19:50:42.813Z,102084.25
2023-05-17T19:53:10.384Z,102094.84
2023-05-17T19:55:44.431Z,102098.56
2023-05-17T19:58:14.989Z,102104.06
2023-05-17T20:00:43.135Z,102110.22
2023-05-17T20:03:10.752Z,102112.81
2023-05-17T20:05:38.786Z,102112.16
2023-05-17T20:08:09.804Z,102109.63
2023-05-17T20:10:46.198Z,102119.03
2023-05-17T20:13:13.773Z,102118.66
2023-05-17T20:15:41.376Z,102123.13
2023-05-17T20:18:09.161Z,102122.09
2023-05-17T20:20:36.773Z,102123.63
2023-05-17T20:23:04.291Z,102123.78
2023-05-17T20:25:33.248Z,102127.59
2023-05-17T20:28:00.888Z,102130.69
2023-05-17T20:30:29.585Z,102131.06
2023-05-17T20:32:59.498Z,102140.16
2023-05-17T20:35:27.087Z,102144.47
2023-05-17T20:37:54.855Z,102140.53
2023-05-17T20:40:22.388Z,102145.31
2023-05-17T20:42:54.575Z,102140.84
2023-05-17T20:45:22.769Z,102149.41
2023-05-17T20:47:51.270Z,102149.81
2023-05-17T20:50:22.766Z,102151.94
2023-05-17T20:52:50.670Z,102155.09
2023-05-17T20:55:18.258Z,102157.75
2023-05-17T20:57:46.856Z,102160.09
2023-05-17T21:00:18.053Z,102167.81
2023-05-17T21:02:45.896Z,102163.44
2023-05-17T21:05:13.780Z,102160.31
2023-05-17T21:07:59.803Z,102154.66
2023-05-17T21:10:27.559Z,102157.94
2023-05-17T21:13:01.064Z,102159.47
2023-05-17T21:15:29.967Z,102153.19
2023-05-17T21:17:57.522Z,102153.81
2023-05-17T21:20:25.091Z,102156.81
2023-05-17T21:22:52.579Z,102157.31
2023-05-17T21:25:20.190Z,102167.13
2023-05-17T21:27:47.696Z,102172.22
2023-05-17T21:30:15.415Z,102165.06
2023-05-17T21:32:44.476Z,102169.88
2023-05-17T21:35:12.144Z,102171.31
2023-05-17T21:37:40.183Z,102167.13
2023-05-17T21:40:09.087Z,102166.88
2023-05-17T21:42:37.159Z,102166.38
2023-05-17T21:45:05.435Z,102164.94
2023-05-17T21:47:35.845Z,102165.03
2023-05-17T21:50:05.202Z,102164.47
2023-05-17T21:52:33.000Z,102168.66
2023-05-17T21:55:00.655Z,102162.81
2023-05-17T21:57:28.228Z,102169.81
2023-05-17T21:59:55.757Z,102168.47
2023-05-17T22:02:23.365Z,102167.72
2023-05-17T22:04:51.126Z,102172.78
2023-05-17T22:07:20.362Z,102172.91
2023-05-17T22:09:48.202Z,102175.75
2023-05-17T22:12:15.786Z,102176.78
2023-05-17T22:14:45.427Z,102175.63
2023-05-17T22:19:59.689Z,102181.09
2023-05-17T22:22:28.464Z,102167.97
2023-05-17T22:24:56.124Z,102173.84
2023-05-17T22:27:23.603Z,102176.91
2023-05-17T22:29:51.332Z,102173.75
2023-05-17T22:32:18.797Z,102175.69
2023-05-17T22:34:46.529Z,102181.53
2023-05-17T22:37:14.063Z,102177.84
2023-05-17T22:39:43.492Z,102182.88
2023-05-17T22:42:13.389Z,102188.31
2023-05-17T22:44:44.788Z,102188.78
2023-05-17T22:47:14.879Z,102194.38
2023-05-17T22:49:47.484Z,102194.47
2023-05-17T22:52:15.976Z,102198.59
2023-05-17T22:54:44.785Z,102203.13
2023-05-17T22:57:12.352Z,102202.13
2023-05-17T22:59:40.142Z,102212.75
2023-05-17T23:02:07.627Z,102204.06
2023-05-17T23:04:37.852Z,102215.28
2023-05-17T23:07:05.654Z,102204.97
2023-05-17T23:09:34.091Z,102211.13
2023-05-17T23:12:05.678Z,102215.63
2023-05-17T23:14:34.152Z,102211.97
2023-05-17T23:17:02.469Z,102209.41
2023-05-17T23:19:30.478Z,102215.69
2023-05-17T23:22:02.703Z,102204.06
2023-05-17T23:24:30.360Z,102208.75
2023-05-17T23:26:58.850Z,102208.09
2023-05-17T23:29:27.713Z,102215.66
2023-05-17T23:31:55.389Z,102215.88
2023-05-17T23:34:24.022Z,102209.31
2023-05-17T23:36:51.655Z,102219.56
2023-05-17T23:39:19.211Z,102211.91
2023-05-17T23:41:47.201Z,102219.22
2023-05-17T23:44:14.841Z,102221.91
2023-05-17T23:46:44.563Z,102224.63
2023-05-17T23:49:12.346Z,102223.56
2023-05-17T23:51:39.918Z,102226.28
2023-05-17T23:54:09.490Z,102224.72
2023-05-17T23:56:37.011Z,102220.09
2023-05-17T23:59:14.347Z,102230.69
